createdAt,value
2017-06-11T00:00:27.721Z,100931
2017-06-11T00:02:55.955Z,100924
2017-06-11T00:05:24.148Z,100925
2017-06-11T00:07:52.352Z,100927
2017-06-11T00:10:20.651Z,100928
2017-06-11T00:12:48.852Z,100917
2017-06-11T00:15:17.042Z,100924
2017-06-11T00:17:46.040Z,100923
2017-06-11T00:20:14.233Z,100925
2017-06-11T00:22:42.430Z,100922
2017-06-11T00:25:10.650Z,100928
2017-06-11T00:27:38.823Z,100929
2017-06-11T00:30:07.034Z,100935
2017-06-11T00:32:35.230Z,100936
2017-06-11T00:35:03.423Z,100930
2017-06-11T00:37:31.760Z,100930
2017-06-11T00:39:59.949Z,100929
2017-06-11T00:42:28.132Z,100930
2017-06-11T00:44:56.345Z,100934
2017-06-11T00:47:24.553Z,100936
2017-06-11T00:49:53.520Z,100927
2017-06-11T00:52:21.719Z,100943
2017-06-11T00:54:50.700Z,100937
2017-06-11T00:57:18.916Z,100938
2017-06-11T00:59:47.122Z,100944
2017-06-11T01:02:15.336Z,100937
2017-06-11T01:04:43.677Z,100930
2017-06-11T01:07:11.879Z,100938
2017-06-11T01:09:40.046Z,100942
2017-06-11T01:12:08.352Z,100943
2017-06-11T01:14:36.526Z,100937
2017-06-11T01:17:04.706Z,100927
2017-06-11T01:19:32.913Z,100924
2017-06-11T01:22:01.086Z,100917
2017-06-11T01:24:29.333Z,100922
2017-06-11T01:26:57.526Z,100918
2017-06-11T01:29:25.744Z,100917
2017-06-11T01:31:53.985Z,100929
2017-06-11T01:34:22.201Z,100930
2017-06-11T01:36:50.380Z,100928
2017-06-11T01:39:18.701Z,100937
2017-06-11T01:41:46.900Z,100936
2017-06-11T01:44:15.223Z,100933
2017-06-11T01:46:43.411Z,100923
2017-06-11T01:49:11.583Z,100916
2017-06-11T01:51:39.869Z,100903
2017-06-11T01:54:08.080Z,100920
2017-06-11T01:56:36.321Z,100915
2017-06-11T01:59:04.592Z,100905
2017-06-11T02:01:32.814Z,100905
2017-06-11T02:04:00.984Z,100903
2017-06-11T02:06:29.308Z,100903
2017-06-11T02:08:57.480Z,100905
2017-06-11T02:11:25.694Z,100905
2017-06-11T02:13:54.670Z,100911
2017-06-11T02:16:22.881Z,100909
2017-06-11T02:18:51.056Z,100909
2017-06-11T02:21:19.246Z,100902
2017-06-11T02:23:47.462Z,100916
2017-06-11T02:26:15.799Z,100912
2017-06-11T02:28:43.985Z,100916
2017-06-11T02:31:12.220Z,100909
2017-06-11T02:33:40.429Z,100911
2017-06-11T02:36:08.620Z,100907
2017-06-11T02:38:36.799Z,100907
2017-06-11T02:41:05.024Z,100912
2017-06-11T02:43:33.260Z,100901
2017-06-11T02:46:01.472Z,100903
2017-06-11T02:48:30.612Z,100891
2017-06-11T02:50:59.144Z,100894
2017-06-11T02:53:27.337Z,100902
2017-06-11T02:55:55.629Z,100892
2017-06-11T02:58:23.897Z,100895
2017-06-11T03:00:52.201Z,100897
2017-06-11T03:03:20.395Z,100893
2017-06-11T03:05:48.599Z,100889
2017-06-11T03:08:16.781Z,100895
2017-06-11T03:10:44.985Z,100899
2017-06-11T03:13:13.248Z,100894
2017-06-11T03:15:41.465Z,100887
2017-06-11T03:18:09.728Z,100889
2017-06-11T03:20:38.084Z,100886
2017-06-11T03:23:06.414Z,100881
2017-06-11T03:25:34.716Z,100879
2017-06-11T03:28:03.120Z,100879
2017-06-11T03:30:31.388Z,100876
2017-06-11T03:32:59.926Z,100877
2017-06-11T03:35:28.291Z,100870
2017-06-11T03:37:57.229Z,100874
2017-06-11T03:40:25.426Z,100878
2017-06-11T03:42:53.672Z,100866
2017-06-11T03:45:21.955Z,100868
2017-06-11T03:47:50.152Z,100878
2017-06-11T03:50:18.377Z,100883
2017-06-11T03:52:46.583Z,100873
2017-06-11T03:55:14.765Z,100870
2017-06-11T03:57:43.241Z,100868
2017-06-11T04:00:11.420Z,100865
2017-06-11T04:02:39.667Z,100870
2017-06-11T04:05:07.885Z,100873
2017-06-11T04:07:36.105Z,100870
2017-06-11T04:10:04.435Z,100869
2017-06-11T04:12:32.670Z,100867
2017-06-11T04:15:00.866Z,100877
2017-06-11T04:17:29.113Z,100867
2017-06-11T04:19:57.304Z,100851
2017-06-11T04:22:25.528Z,100851
2017-06-11T04:24:53.742Z,100852
2017-06-11T04:27:22.298Z,100864
2017-06-11T04:29:50.496Z,100856
2017-06-11T04:32:18.693Z,100856
2017-06-11T04:34:46.904Z,100852
2017-06-11T04:37:15.069Z,100850
2017-06-11T04:39:43.267Z,100853
2017-06-11T04:42:11.471Z,100852
2017-06-11T04:44:39.651Z,100847
2017-06-11T04:47:07.814Z,100854
2017-06-11T04:49:36.027Z,100848
2017-06-11T04:52:04.199Z,100851
2017-06-11T04:54:33.199Z,100852
2017-06-11T04:57:01.457Z,100852
2017-06-11T04:59:29.644Z,100869
2017-06-11T05:01:57.827Z,100868
2017-06-11T05:04:26.030Z,100869
2017-06-11T05:06:54.223Z,100867
2017-06-11T05:09:22.496Z,100866
2017-06-11T05:11:50.723Z,100862
2017-06-11T05:14:18.981Z,100874
2017-06-11T05:16:47.192Z,100871
2017-06-11T05:19:15.407Z,100872
2017-06-11T05:21:43.600Z,100876
2017-06-11T05:24:11.802Z,100870
2017-06-11T05:26:40.019Z,100867
2017-06-11T05:29:08.597Z,100859
2017-06-11T05:31:37.073Z,100863
2017-06-11T05:34:05.276Z,100867
2017-06-11T05:36:33.460Z,100867
2017-06-11T05:39:01.673Z,100862
2017-06-11T05:41:29.871Z,100860
2017-06-11T05:43:58.145Z,100864
2017-06-11T05:46:27.168Z,100869
2017-06-11T05:48:55.343Z,100855
2017-06-11T05:51:23.534Z,100857
2017-06-11T05:53:51.761Z,100864
2017-06-11T05:56:19.944Z,100866
2017-06-11T05:58:48.111Z,100865
2017-06-11T06:01:16.336Z,100867
2017-06-11T06:03:44.543Z,100867
2017-06-11T06:06:12.741Z,100868
2017-06-11T06:08:40.924Z,100864
2017-06-11T06:11:09.129Z,100864
2017-06-11T06:13:37.332Z,100865
2017-06-11T06:16:05.535Z,100853
2017-06-11T06:18:33.721Z,100856
2017-06-11T06:21:01.952Z,100849
2017-06-11T07:18:22.389Z,100834
2017-06-11T07:20:50.565Z,100847
2017-06-11T07:23:18.748Z,100846
2017-06-11T07:25:46.988Z,100844
2017-06-11T07:28:15.143Z,100835
2017-06-11T07:30:43.310Z,100833
2017-06-11T07:33:11.654Z,100835
2017-06-11T07:35:39.842Z,100844
2017-06-11T07:38:08.817Z,100830
2017-06-11T07:40:37.008Z,100827
2017-06-11T07:43:05.954Z,100817
2017-06-11T07:45:34.176Z,100818
2017-06-11T07:48:02.378Z,100814
2017-06-11T07:50:30.580Z,100817
2017-06-11T07:52:58.760Z,100813
2017-06-11T07:55:26.967Z,100813
2017-06-11T07:57:55.193Z,100813
2017-06-11T08:00:23.377Z,100812
2017-06-11T08:02:51.617Z,100812
2017-06-11T08:05:19.812Z,100807
2017-06-11T08:07:48.008Z,100815
2017-06-11T08:10:16.314Z,100807
2017-06-11T08:12:44.507Z,100800
2017-06-11T08:15:12.686Z,100804
2017-06-11T08:17:40.876Z,100804
2017-06-11T08:20:09.083Z,100803
2017-06-11T08:22:37.248Z,100804
2017-06-11T08:25:05.494Z,100798
2017-06-11T08:27:33.802Z,100808
2017-06-11T08:30:02.238Z,100795
2017-06-11T08:32:30.476Z,100797
2017-06-11T08:34:58.718Z,100801
2017-06-11T08:37:27.113Z,100795
2017-06-11T08:39:55.349Z,100795
2017-06-11T08:42:23.618Z,100785
2017-06-11T08:44:51.766Z,100786
2017-06-11T08:47:19.994Z,100775
2017-06-11T08:49:48.179Z,100768
2017-06-11T08:52:16.431Z,100766
2017-06-11T08:54:44.620Z,100768
2017-06-11T08:57:12.799Z,100767
2017-06-11T08:59:41.004Z,100766
2017-06-11T09:02:09.190Z,100767
2017-06-11T09:04:37.449Z,100758
2017-06-11T09:07:05.638Z,100756
2017-06-11T09:09:33.848Z,100753
2017-06-11T09:12:02.001Z,100751
2017-06-11T09:14:30.389Z,100753
2017-06-11T09:16:58.561Z,100749
2017-06-11T09:19:26.935Z,100756
2017-06-11T09:21:55.178Z,100743
2017-06-11T09:24:23.357Z,100742
2017-06-11T09:26:51.563Z,100732
2017-06-11T09:29:19.816Z,100726
2017-06-11T09:31:48.063Z,100729
2017-06-11T09:34:16.288Z,100730
2017-06-11T09:36:44.635Z,100725
2017-06-11T09:39:12.811Z,100726
2017-06-11T09:41:41.006Z,100718
2017-06-11T09:44:09.182Z,100713
2017-06-11T09:46:37.382Z,100710
2017-06-11T09:49:05.658Z,100719
2017-06-11T09:51:33.862Z,100722
2017-06-11T09:54:02.077Z,100713
2017-06-11T09:56:30.494Z,100711
2017-06-11T09:58:58.710Z,100704
2017-06-11T10:01:26.933Z,100709
2017-06-11T10:03:55.153Z,100706
2017-06-11T10:06:23.383Z,100701
2017-06-11T10:08:51.707Z,100696
2017-06-11T10:11:19.892Z,100699
2017-06-11T10:13:48.113Z,100698
2017-06-11T10:16:16.311Z,100700
2017-06-11T10:18:44.698Z,100692
2017-06-11T10:21:13.300Z,100688
2017-06-11T10:23:41.475Z,100691
2017-06-11T10:26:09.643Z,100697
2017-06-11T10:28:37.932Z,100690
2017-06-11T10:31:06.099Z,100687
2017-06-11T10:33:34.263Z,100673
2017-06-11T10:36:02.532Z,100674
2017-06-11T10:38:30.711Z,100681
2017-06-11T10:40:58.913Z,100677
2017-06-11T10:43:27.268Z,100664
2017-06-11T10:45:55.551Z,100670
2017-06-11T10:48:23.863Z,100663
2017-06-11T10:50:52.089Z,100653
2017-06-11T10:53:20.294Z,100654
2017-06-11T10:55:48.690Z,100658
2017-06-11T10:58:16.949Z,100659
2017-06-11T11:00:45.307Z,100643
2017-06-11T11:03:13.771Z,100650
2017-06-11T11:05:42.159Z,100645
2017-06-11T11:08:10.330Z,100644
2017-06-11T11:10:38.515Z,100634
2017-06-11T11:13:06.847Z,100628
2017-06-11T11:15:35.191Z,100643
2017-06-11T11:18:03.384Z,100631
2017-06-11T11:20:31.810Z,100633
2017-06-11T11:23:00.019Z,100637
2017-06-11T11:25:28.222Z,100629
2017-06-11T11:27:56.430Z,100618
2017-06-11T11:30:24.577Z,100612
2017-06-11T11:32:52.813Z,100609
2017-06-11T11:35:21.030Z,100604
2017-06-11T11:37:49.367Z,100599
2017-06-11T11:40:17.562Z,100592
2017-06-11T11:42:45.753Z,100592
2017-06-11T11:45:13.932Z,100583
2017-06-11T11:47:42.118Z,100583
2017-06-11T11:50:10.313Z,100577
2017-06-11T11:52:39.507Z,100576
2017-06-11T11:55:07.705Z,100571
2017-06-11T11:57:35.871Z,100559
2017-06-11T12:00:04.047Z,100567
2017-06-11T12:02:32.260Z,100552
2017-06-11T12:05:01.237Z,100547
2017-06-11T12:07:29.401Z,100550
2017-06-11T12:09:57.638Z,100538
2017-06-11T12:12:25.816Z,100538
2017-06-11T12:14:54.739Z,100536
2017-06-11T12:17:22.934Z,100541
2017-06-11T12:19:51.146Z,100534
2017-06-11T12:22:19.344Z,100526
2017-06-11T12:24:48.051Z,100519
2017-06-11T12:27:16.252Z,100524
2017-06-11T12:29:44.412Z,100522
2017-06-11T12:32:12.593Z,100511
2017-06-11T12:34:41.559Z,100515
2017-06-11T12:37:09.806Z,100520
2017-06-11T12:39:37.976Z,100512
2017-06-11T12:42:06.189Z,100509
2017-06-11T12:44:36.065Z,100508
2017-06-11T12:47:04.295Z,100498
2017-06-11T12:49:32.473Z,100501
2017-06-11T12:52:00.626Z,100489
2017-06-11T12:54:28.835Z,100479
2017-06-11T12:56:57.001Z,100485
2017-06-11T12:59:25.650Z,100479
2017-06-11T13:01:53.870Z,100480
2017-06-11T13:04:22.051Z,100477
2017-06-11T13:06:50.315Z,100476
2017-06-11T13:09:18.547Z,100476
2017-06-11T13:11:46.775Z,100456
2017-06-11T13:14:15.631Z,100463
2017-06-11T13:16:43.815Z,100457
2017-06-11T13:19:11.971Z,100456
2017-06-11T13:21:40.181Z,100454
2017-06-11T13:24:08.340Z,100453
2017-06-11T13:26:36.519Z,100437
2017-06-11T13:29:04.707Z,100437
2017-06-11T13:31:32.896Z,100437
2017-06-11T13:34:01.583Z,100431
2017-06-11T13:36:30.609Z,100430
2017-06-11T13:39:00.340Z,100434
2017-06-11T13:41:28.711Z,100427
2017-06-11T13:43:58.125Z,100420
2017-06-11T13:46:26.300Z,100421
2017-06-11T13:48:54.650Z,100422
2017-06-11T13:51:24.784Z,100421
2017-06-11T13:53:52.996Z,100417
2017-06-11T13:56:21.159Z,100412
2017-06-11T13:58:49.323Z,100413
2017-06-11T14:01:17.541Z,100403
2017-06-11T14:03:45.710Z,100402
2017-06-11T14:06:13.904Z,100398
2017-06-11T14:08:42.165Z,100394
2017-06-11T14:11:10.392Z,100394
2017-06-11T14:13:38.561Z,100386
2017-06-11T14:16:06.754Z,100375
2017-06-11T14:18:34.943Z,100376
2017-06-11T14:21:03.199Z,100366
2017-06-11T14:23:31.426Z,100363
2017-06-11T14:25:59.666Z,100364
2017-06-11T14:28:27.837Z,100365
2017-06-11T14:30:55.981Z,100357
2017-06-11T14:33:24.166Z,100362
2017-06-11T14:35:52.333Z,100358
2017-06-11T14:38:20.546Z,100356
2017-06-11T14:40:48.737Z,100349
2017-06-11T14:43:17.834Z,100350
2017-06-11T14:45:46.010Z,100350
2017-06-11T14:48:14.184Z,100360
2017-06-11T14:50:42.382Z,100351
2017-06-11T14:53:10.763Z,100347
2017-06-11T14:55:38.935Z,100341
2017-06-11T14:58:07.171Z,100344
2017-06-11T15:00:35.593Z,100341
2017-06-11T15:03:03.963Z,100340
2017-06-11T15:05:32.163Z,100333
2017-06-11T15:08:00.355Z,100334
2017-06-11T15:10:28.520Z,100335
2017-06-11T15:12:56.684Z,100326
2017-06-11T15:15:24.883Z,100321
2017-06-11T15:17:53.054Z,100324
2017-06-11T15:20:21.231Z,100320
2017-06-11T15:22:49.445Z,100308
2017-06-11T15:25:17.742Z,100301
2017-06-11T15:27:45.904Z,100297
2017-06-11T15:30:14.076Z,100289
2017-06-11T15:32:42.308Z,100292
2017-06-11T15:35:11.321Z,100304
2017-06-11T15:37:39.529Z,100300
2017-06-11T15:40:07.701Z,100290
2017-06-11T15:42:35.884Z,100277
2017-06-11T15:45:04.055Z,100282
2017-06-11T15:47:32.216Z,100275
2017-06-11T15:50:00.391Z,100278
2017-06-11T15:52:28.586Z,100269
2017-06-11T15:54:56.795Z,100270
2017-06-11T15:57:25.753Z,100256
2017-06-11T15:59:53.943Z,100253
2017-06-11T16:02:22.138Z,100245
2017-06-11T16:04:50.319Z,100237
2017-06-11T16:07:18.606Z,100237
2017-06-11T16:09:46.765Z,100239
2017-06-11T16:12:14.933Z,100238
2017-06-11T16:14:43.463Z,100224
2017-06-11T16:17:11.617Z,100219
2017-06-11T16:19:39.790Z,100224
2017-06-11T16:22:07.993Z,100229
2017-06-11T16:24:36.166Z,100233
2017-06-11T16:27:04.334Z,100237
2017-06-11T16:29:32.551Z,100237
2017-06-11T16:32:01.545Z,100215
2017-06-11T16:34:29.722Z,100209
2017-06-11T16:36:57.869Z,100215
2017-06-11T16:39:26.064Z,100211
2017-06-11T16:41:54.286Z,100204
2017-06-11T16:44:22.516Z,100202
2017-06-11T16:46:50.707Z,100203
2017-06-11T16:49:18.965Z,100205
2017-06-11T16:51:47.127Z,100207
2017-06-11T16:54:15.494Z,100204
2017-06-11T16:56:43.743Z,100198
2017-06-11T16:59:11.914Z,100198
2017-06-11T17:01:40.088Z,100198
2017-06-11T17:04:08.318Z,100195
2017-06-11T17:06:36.504Z,100186
2017-06-11T17:09:04.881Z,100185
2017-06-11T17:11:33.103Z,100184
2017-06-11T17:14:01.283Z,100190
2017-06-11T17:16:29.454Z,100179
2017-06-11T17:18:57.690Z,100171
2017-06-11T17:21:25.900Z,100175
2017-06-11T17:23:54.090Z,100170
2017-06-11T17:26:22.298Z,100168
2017-06-11T17:28:50.472Z,100169
2017-06-11T17:31:18.631Z,100171
2017-06-11T17:33:47.317Z,100170
2017-06-11T17:36:15.492Z,100169
2017-06-11T17:38:43.682Z,100160
2017-06-11T17:41:11.914Z,100167
2017-06-11T17:43:40.078Z,100160
2017-06-11T17:46:08.303Z,100162
2017-06-11T17:48:36.530Z,100161
2017-06-11T17:51:04.709Z,100151
2017-06-11T17:53:32.991Z,100156
2017-06-11T17:56:01.203Z,100159
2017-06-11T17:58:29.389Z,100154
2017-06-11T18:00:57.600Z,100147
2017-06-11T18:03:25.892Z,100148
2017-06-11T18:05:54.822Z,100147
2017-06-11T18:08:23.054Z,100157
2017-06-11T18:10:52.010Z,100155
2017-06-11T18:13:20.239Z,100150
2017-06-11T18:15:48.480Z,100150
2017-06-11T18:18:16.667Z,100152
2017-06-11T18:20:45.623Z,100149
2017-06-11T18:23:13.861Z,100152
2017-06-11T18:25:42.391Z,100153
2017-06-11T18:28:10.615Z,100155
2017-06-11T18:30:38.864Z,100156
2017-06-11T18:33:07.856Z,100156
2017-06-11T18:35:36.972Z,100153
2017-06-11T18:38:05.166Z,100159
2017-06-11T18:40:33.327Z,100157
2017-06-11T18:43:01.572Z,100148
2017-06-11T18:45:29.764Z,100153
2017-06-11T18:47:57.943Z,100150
2017-06-11T18:50:26.207Z,100145
2017-06-11T18:52:54.409Z,100139
2017-06-11T18:55:22.710Z,100142
2017-06-11T18:57:50.905Z,100132
2017-06-11T19:00:19.147Z,100131
2017-06-11T19:02:47.408Z,100131
2017-06-11T19:05:15.606Z,100129
2017-06-11T19:07:43.881Z,100130
2017-06-11T19:10:12.109Z,100140
2017-06-11T19:12:40.616Z,100139
2017-06-11T19:15:08.811Z,100133
2017-06-11T19:17:37.027Z,100137
2017-06-11T19:20:05.251Z,100138
2017-06-11T19:22:33.435Z,100140
2017-06-11T19:25:01.726Z,100142
2017-06-11T19:27:29.896Z,100143
2017-06-11T19:29:58.086Z,100149
2017-06-11T19:32:26.363Z,100151
2017-06-11T19:34:55.351Z,100148
2017-06-11T19:37:24.844Z,100146
2017-06-11T19:39:53.125Z,100140
2017-06-11T19:42:21.338Z,100145
2017-06-11T19:44:50.776Z,100147
2017-06-11T19:47:18.960Z,100146
2017-06-11T19:49:47.205Z,100147
2017-06-11T19:52:15.461Z,100151
2017-06-11T19:54:43.780Z,100143
2017-06-11T19:57:11.998Z,100144
2017-06-11T19:59:40.195Z,100147
2017-06-11T20:02:08.376Z,100146
2017-06-11T20:04:36.684Z,100136
2017-06-11T20:07:04.911Z,100142
2017-06-11T20:09:33.102Z,100141
2017-06-11T20:12:01.352Z,100147
2017-06-11T20:14:29.528Z,100154
2017-06-11T20:16:57.863Z,100157
2017-06-11T20:19:26.041Z,100162
2017-06-11T20:21:54.242Z,100161
2017-06-11T20:24:22.535Z,100168
2017-06-11T20:26:50.828Z,100173
2017-06-11T20:29:19.006Z,100172
2017-06-11T20:31:47.206Z,100160
2017-06-11T20:34:15.371Z,100169
2017-06-11T20:36:43.662Z,100162
2017-06-11T20:39:11.911Z,100163
2017-06-11T20:41:40.275Z,100158
2017-06-11T20:44:08.456Z,100158
2017-06-11T20:46:36.769Z,100161
2017-06-11T20:49:04.967Z,100161
2017-06-11T20:51:33.160Z,100160
2017-06-11T20:54:01.482Z,100162
2017-06-11T20:56:29.649Z,100157
2017-06-11T20:58:57.803Z,100165
2017-06-11T21:01:26.058Z,100159
2017-06-11T21:03:54.235Z,100152
2017-06-11T21:06:22.509Z,100156
2017-06-11T21:08:50.790Z,100150
2017-06-11T21:11:18.990Z,100159
2017-06-11T21:13:47.224Z,100153
2017-06-11T21:16:15.433Z,100160
2017-06-11T21:18:43.754Z,100155
2017-06-11T21:21:11.930Z,100162
2017-06-11T21:23:40.121Z,100159
2017-06-11T21:26:08.341Z,100170
2017-06-11T21:28:36.554Z,100174
2017-06-11T21:31:04.731Z,100170
2017-06-11T21:33:32.946Z,100169
2017-06-11T21:36:01.153Z,100171
2017-06-11T21:38:29.365Z,100165
2017-06-11T21:40:57.565Z,100159
2017-06-11T21:43:25.723Z,100161
2017-06-11T21:45:53.901Z,100169
2017-06-11T21:48:22.144Z,100168
2017-06-11T21:50:51.103Z,100168
2017-06-11T21:53:19.308Z,100164
2017-06-11T21:55:47.757Z,100163
2017-06-11T21:58:27.764Z,100176
2017-06-11T22:00:57.123Z,100170
2017-06-11T22:03:25.301Z,100168
2017-06-11T22:05:53.490Z,100169
2017-06-11T22:08:21.681Z,100165
2017-06-11T22:10:49.850Z,100171
2017-06-11T22:13:18.029Z,100172
2017-06-11T22:15:46.223Z,100171
2017-06-11T22:18:14.412Z,100174
2017-06-11T22:20:42.565Z,100178
2017-06-11T22:23:10.774Z,100177
2017-06-11T22:25:38.960Z,100182
2017-06-11T22:28:07.172Z,100177
2017-06-11T22:30:35.346Z,100182
2017-06-11T22:33:03.579Z,100185
2017-06-11T22:35:31.778Z,100164
2017-06-11T22:37:59.954Z,100188
2017-06-11T22:40:28.115Z,100181
2017-06-11T22:42:56.303Z,100184
2017-06-11T22:45:24.491Z,100183
2017-06-11T22:47:52.674Z,100180
2017-06-11T22:50:20.855Z,100175
2017-06-11T22:52:48.990Z,100178
2017-06-11T22:55:17.196Z,100177
2017-06-11T22:57:45.362Z,100182
2017-06-11T23:00:16.791Z,100183
2017-06-11T23:02:44.967Z,100181
2017-06-11T23:05:13.133Z,100184
2017-06-11T23:07:41.426Z,100176
2017-06-11T23:10:09.609Z,100176
2017-06-11T23:12:37.937Z,100173
2017-06-11T23:15:06.878Z,100167
2017-06-11T23:17:35.617Z,100176
2017-06-11T23:20:03.898Z,100177
2017-06-11T23:22:32.142Z,100181
2017-06-11T23:25:00.300Z,100184
2017-06-11T23:27:28.483Z,100180
2017-06-11T23:29:56.669Z,100172
2017-06-11T23:32:24.850Z,100161
2017-06-11T23:34:53.047Z,100162
2017-06-11T23:37:21.214Z,100161
2017-06-11T23:39:49.393Z,100157
2017-06-11T23:42:17.596Z,100148
2017-06-11T23:44:45.792Z,100157
2017-06-11T23:47:14.199Z,100161
2017-06-11T23:49:42.373Z,100158
2017-06-11T23:52:10.568Z,100150
2017-06-11T23:54:38.767Z,100147
2017-06-11T23:57:06.917Z,100147
2017-06-11T23:59:35.119Z,100152
